Adventure of The Seas — C6SA3 — position and weather

sailwx.info

Track history (hours):
 
Tides and Currents Weather Stations Pressure Air Temp Water Temp Dewpoint Dewpoint Depression Visibility Wind Speed Wind Dir Waves Ship Positions

Adventure of The Seas

Operator: Royal Caribbean Cruises Ltd

Last reported at 2016-Jul-24 23:13 UTC. Time now 2016-Jul-26 02:29 UTC.
Position N 17°51' W 063°29'.

Type: Passenger vessel. MMSI: 311263000.

Date/timePositionNaut miles runAvg speedWind from/ knotsBaromVisibWave heightAir tempDewpointWater temp
2016-Jul-24 23:13N 17°51' W 063°29'913.2
2016-Jul-24 22:33N 17°54' W 063°20'1413.0
2016-Jul-24 21:31N 17°59' W 063°07'4 0.4
2016-Jul-24 11:27N 18°00' W 063°03'1415.0
2016-Jul-24 10:32N 18°02' W 063°18'8218.4
2016-Jul-24 06:05N 18°11' W 064°43'917.7
2016-Jul-24 05:33N 18°12' W 064°53'6917.0
2016-Jul-24 01:31N 18°34' W 066°01'8 7.7
2016-Jul-24 00:31N 18°28' W 066°06'0 0.0
2016-Jul-23 23:25N 18°28' W 066°06'0 0.0
2016-Jul-23 22:31N 18°28' W 066°06'0 0.0
2016-Jul-23 21:31N 18°28' W 066°06'0 0.0
2016-Jul-23 20:34N 18°28' W 066°06'0 0.0
2016-Jul-23 19:25N 18°28' W 066°06'0 0.0
2016-Jul-23 18:31N 18°28' W 066°06'0 0.0
2016-Jul-23 17:34N 18°28' W 066°06'0 0.0
2016-Jul-23 16:25N 18°28' W 066°06'0 0.0
2016-Jul-23 15:28N 18°28' W 066°06'0 0.0
2016-Jul-23 14:31N 18°28' W 066°06'0 0.0
2016-Jul-23 13:28N 18°28' W 066°06'0 0.0
2016-Jul-23 12:31N 18°28' W 066°06'0 0.0
2016-Jul-23 11:31N 18°28' W 066°06'0 0.0
2016-Jul-23 10:34N 18°28' W 066°06'0 0.0
2016-Jul-23 09:29N 18°28' W 066°06'4 4.6
2016-Jul-23 08:33N 18°32' W 066°07'6812.5
2016-Jul-23 03:06N 18°13' W 064°58'913.6
2016-Jul-23 02:28N 18°08' W 064°50'  
2016-Jul-20 01:34N 16°20' W 062°06'1414.4
2016-Jul-20 00:34N 16°35' W 062°04'1414.4
2016-Jul-19 23:34N 16°49' W 062°03'1514.6
2016-Jul-19 22:33N 17°04' W 062°01'8 8.5
2016-Jul-19 21:33N 17°08' W 061°53'2 2.3
2016-Jul-19 20:32N 17°07' W 061°51'0 0.0
2016-Jul-19 19:32N 17°07' W 061°51'0 0.0
2016-Jul-19 18:32N 17°07' W 061°51'0 0.0
2016-Jul-19 17:32N 17°07' W 061°51'0 0.0
2016-Jul-19 16:32N 17°07' W 061°51'0 0.0
2016-Jul-19 15:32N 17°07' W 061°51'0 0.0
2016-Jul-19 14:32N 17°07' W 061°51'0 0.0
2016-Jul-19 13:32N 17°07' W 061°51'0 0.0
2016-Jul-19 12:29N 17°07' W 061°51'1 0.7
2016-Jul-19 11:34N 17°07' W 061°52'8 7.7
2016-Jul-19 10:34N 17°10' W 061°59'5 5.4
2016-Jul-19 09:34N 17°13' W 062°04'5 4.9
2016-Jul-19 08:34N 17°16' W 062°07'7 7.4
2016-Jul-19 07:34N 17°23' W 062°10'17 5.7
2016-Jul-19 04:33N 17°35' W 062°23'43 1.5
2016-Jul-18 00:28N 17°41' W 063°07'7 7.1
2016-Jul-17 23:30N 17°47' W 063°07'7 7.1
2016-Jul-17 22:33N 17°54' W 063°06'6 5.9
2016-Jul-17 21:31N 18°00' W 063°05'2 0.2
2016-Jul-17 11:24N 18°01' W 063°03'1214.5
2016-Jul-17 10:33N 18°01' W 063°16'1918.6
2016-Jul-17 09:31N 18°03' W 063°36'14511.7
2016-Jul-16 21:11N 18°28' W 066°06'0 0.0
2016-Jul-16 20:29N 18°28' W 066°06'0 0.0
2016-Jul-16 19:26N 18°28' W 066°06'0 0.0
2016-Jul-16 18:26N 18°28' W 066°06'0 0.0
2016-Jul-16 17:32N 18°28' W 066°06'0 0.0
2016-Jul-16 16:29N 18°28' W 066°06'0 0.0
2016-Jul-16 15:29N 18°28' W 066°06'0 0.0
2016-Jul-16 14:23N 18°28' W 066°06'0 0.0
2016-Jul-16 13:32N 18°28' W 066°06'0 0.0
2016-Jul-16 12:32N 18°28' W 066°06'0 0.0
2016-Jul-16 11:32N 18°28' W 066°06'0 0.0
2016-Jul-16 10:32N 18°28' W 066°06'0 0.0
2016-Jul-16 09:32N 18°28' W 066°06'6 5.8
2016-Jul-16 08:33N 18°33' W 066°08'  
Track history (hours):
 
Tides and Currents Weather Stations Pressure Air Temp Water Temp Dewpoint Dewpoint Depression Visibility Wind Speed Wind Dir Waves Ship Positions

Adventure of The Seas

Operator: Royal Caribbean Cruises Ltd

Last reported at 2016-Jul-24 23:13 UTC. Time now 2016-Jul-26 02:29 UTC.
Position N 17°51' W 063°29'.

Type: Passenger vessel. MMSI: 311263000.

Date/timePositionNaut miles runAvg speedWind from/ knotsBaromVisibWave heightAir tempDewpointWater temp
2016-Jul-24 23:13N 17°51' W 063°29'913.2
2016-Jul-24 22:33N 17°54' W 063°20'1413.0
2016-Jul-24 21:31N 17°59' W 063°07'4 0.4
2016-Jul-24 11:27N 18°00' W 063°03'1415.0
2016-Jul-24 10:32N 18°02' W 063°18'8218.4
2016-Jul-24 06:05N 18°11' W 064°43'917.7
2016-Jul-24 05:33N 18°12' W 064°53'6917.0
2016-Jul-24 01:31N 18°34' W 066°01'8 7.7
2016-Jul-24 00:31N 18°28' W 066°06'0 0.0
2016-Jul-23 23:25N 18°28' W 066°06'0 0.0
2016-Jul-23 22:31N 18°28' W 066°06'0 0.0
2016-Jul-23 21:31N 18°28' W 066°06'0 0.0
2016-Jul-23 20:34N 18°28' W 066°06'0 0.0
2016-Jul-23 19:25N 18°28' W 066°06'0 0.0
2016-Jul-23 18:31N 18°28' W 066°06'0 0.0
2016-Jul-23 17:34N 18°28' W 066°06'0 0.0
2016-Jul-23 16:25N 18°28' W 066°06'0 0.0
2016-Jul-23 15:28N 18°28' W 066°06'0 0.0
2016-Jul-23 14:31N 18°28' W 066°06'0 0.0
2016-Jul-23 13:28N 18°28' W 066°06'0 0.0
2016-Jul-23 12:31N 18°28' W 066°06'0 0.0
2016-Jul-23 11:31N 18°28' W 066°06'0 0.0
2016-Jul-23 10:34N 18°28' W 066°06'0 0.0
2016-Jul-23 09:29N 18°28' W 066°06'4 4.6
2016-Jul-23 08:33N 18°32' W 066°07'6812.5
2016-Jul-23 03:06N 18°13' W 064°58'913.6
2016-Jul-23 02:28N 18°08' W 064°50'  
2016-Jul-20 01:34N 16°20' W 062°06'1414.4
2016-Jul-20 00:34N 16°35' W 062°04'1414.4
2016-Jul-19 23:34N 16°49' W 062°03'1514.6
2016-Jul-19 22:33N 17°04' W 062°01'8 8.5
2016-Jul-19 21:33N 17°08' W 061°53'2 2.3
2016-Jul-19 20:32N 17°07' W 061°51'0 0.0
2016-Jul-19 19:32N 17°07' W 061°51'0 0.0
2016-Jul-19 18:32N 17°07' W 061°51'0 0.0
2016-Jul-19 17:32N 17°07' W 061°51'0 0.0
2016-Jul-19 16:32N 17°07' W 061°51'0 0.0
2016-Jul-19 15:32N 17°07' W 061°51'0 0.0
2016-Jul-19 14:32N 17°07' W 061°51'0 0.0
2016-Jul-19 13:32N 17°07' W 061°51'0 0.0
2016-Jul-19 12:29N 17°07' W 061°51'1 0.7
2016-Jul-19 11:34N 17°07' W 061°52'8 7.7
2016-Jul-19 10:34N 17°10' W 061°59'5 5.4
2016-Jul-19 09:34N 17°13' W 062°04'5 4.9
2016-Jul-19 08:34N 17°16' W 062°07'7 7.4
2016-Jul-19 07:34N 17°23' W 062°10'17 5.7
2016-Jul-19 04:33N 17°35' W 062°23'43 1.5
2016-Jul-18 00:28N 17°41' W 063°07'7 7.1
2016-Jul-17 23:30N 17°47' W 063°07'7 7.1
2016-Jul-17 22:33N 17°54' W 063°06'6 5.9
2016-Jul-17 21:31N 18°00' W 063°05'2 0.2
2016-Jul-17 11:24N 18°01' W 063°03'1214.5
2016-Jul-17 10:33N 18°01' W 063°16'1918.6
2016-Jul-17 09:31N 18°03' W 063°36'14511.7
2016-Jul-16 21:11N 18°28' W 066°06'0 0.0
2016-Jul-16 20:29N 18°28' W 066°06'0 0.0
2016-Jul-16 19:26N 18°28' W 066°06'0 0.0
2016-Jul-16 18:26N 18°28' W 066°06'0 0.0
2016-Jul-16 17:32N 18°28' W 066°06'0 0.0
2016-Jul-16 16:29N 18°28' W 066°06'0 0.0
2016-Jul-16 15:29N 18°28' W 066°06'0 0.0
2016-Jul-16 14:23N 18°28' W 066°06'0 0.0
2016-Jul-16 13:32N 18°28' W 066°06'0 0.0
2016-Jul-16 12:32N 18°28' W 066°06'0 0.0
2016-Jul-16 11:32N 18°28' W 066°06'0 0.0
2016-Jul-16 10:32N 18°28' W 066°06'0 0.0
2016-Jul-16 09:32N 18°28' W 066°06'6 5.8
2016-Jul-16 08:33N 18°33' W 066°08'  

Dump ship's entire track history